logo
Games tagged Rome
# Game Release date
Price
Score rank
(Userscore / Metascore)
Owners
Players
Playtime (Median)
Developer(s)
Publisher(s)
1 Rome: Total War - Collection Sep 22, 2004 N/AN/A (N/A/92%)1,000,000 .. 2,000,0000%00:00 (00:00)CREATIVE ASSEMBLYSEGA
2 Assassin’s Creed Brotherhood Mar 22, 2011 $19.99N/A (N/A/88%)1,000,000 .. 2,000,0000%00:00 (00:00)Ubisoft MontrealUbisoft
3 The Forgotten City Jul 28, 2021 $14.99N/A (N/A/84%)200,000 .. 500,0000%00:00 (00:00)Modern StorytellerDear Villagers
4 Field of Glory II Oct 12, 2017 $29.99N/A (N/A/84%)20,000 .. 50,0000%00:00 (00:00)Byzantine GamesSlitherine Ltd.
5 The Age of Decadence Oct 14, 2015 $12.99N/A (N/A/81%)200,000 .. 500,0000%00:00 (00:00)Iron Tower StudioIron Tower Studio
6 Expeditions: Rome Jan 20, 2022 $44.99N/A (N/A/80%)200,000 .. 500,00020%08:21 (05:34)Logic ArtistsTHQ Nordic
7 Total War: ATTILA Feb 17, 2015 $44.99N/A (N/A/80%)2,000,000 .. 5,000,0004.39%07:30 (11:00)CREATIVE ASSEMBLYSEGA
8 Time Commando Jul 31, 1996 $5.99N/A (N/A/80%)200,000 .. 500,0000%00:00 (00:00)[2.21][2.21]
9 Europa Universalis: Rome - Gold Edition Nov 19, 2008 $9.99N/A (N/A/79%)50,000 .. 100,0000%00:00 (00:00)Paradox Development StudioParadox Interactive
10 Rome: Total War - Alexander Jun 26, 2006 N/AN/A (N/A/79%)500,000 .. 1,000,0000%00:00 (00:00)The Creative AssemblySEGA
11 Praetorians Mar 10, 2003 $4.99N/A (N/A/78%)100,000 .. 200,0000%00:00 (00:00)Pyro StudiosKalypso Media Digital
12 Field of Glory: Empires Jul 11, 2019 $39.99N/A (N/A/76%)20,000 .. 50,0000%00:00 (00:00)AgeodSlitherine Ltd.
13 Imperator: Rome Apr 25, 2019 $39.99N/A (N/A/76%)500,000 .. 1,000,0000%00:00 (00:00)Paradox Development StudioParadox Interactive
14 Aggressors: Ancient Rome Aug 30, 2018 $29.99N/A (N/A/76%)0 .. 20,0000%00:00 (00:00)Kubat SoftwareSlitherine Ltd.
15 Total War: ROME II - Emperor Edition Sep 2, 2013 $59.99N/A (N/A/76%)2,000,000 .. 5,000,0003.21%20:43 (39:35)CREATIVE ASSEMBLYSEGA
16 Caesar IV Sep 9, 2006 $9.99N/A (N/A/74%)100,000 .. 200,0000%00:00 (00:00)Tilted Mill Entertainment, Inc.Activision
17 Nemesis of the Roman Empire Jan 28, 2016 $9.99N/A (N/A/74%)20,000 .. 50,0000%00:00 (00:00)Haemimont GamesHaemimont Games
18 Qvadriga Jun 13, 2014 $19.99N/A (N/A/72%)50,000 .. 100,0000%00:00 (00:00)TurnopiaSlitherine Ltd.
19 Grand Ages: Rome Mar 20, 2009 $4.99N/A (N/A/72%)200,000 .. 500,0000%00:00 (00:00)Haemimont GamesKalypso Media Digital
20 CivCity: Rome Jul 24, 2006 $9.99N/A (N/A/67%)100,000 .. 200,0000%00:00 (00:00)FireFly Studios, Firaxis Games2K
21 Imperium Romanum Gold Edition Oct 30, 2008 $4.99N/A (N/A/63%)100,000 .. 200,0000%00:00 (00:00)Haemimont GamesKalypso Media Digital
22 Ryse: Son of Rome Oct 10, 2014 $9.99N/A (N/A/61%)1,000,000 .. 2,000,0000.47%05:00 (01:40)CrytekCrytek
23 Gladio and Glory Mar 16, 2021 FreeN/A (N/A)200,000 .. 500,0000%00:00 (00:00)Adi ZhavoAdi Zhavo
24 Gladiators IDLE Dec 17, 2020 N/AN/A (N/A)0 .. 20,0000%00:00 (00:00)Renan Miguelote ViannaRenan Miguelote Vianna
25 Gallic Wars: Battle Simulator Prologue Oct 16, 2020 FreeN/A (N/A)0 .. 20,0000%00:00 (00:00)MadGamesmithWIG Publishing
26 Demise of Nations Aug 8, 2017 FreeN/A (N/A)200,000 .. 500,0000%00:00 (00:00)Noble Master LLCNoble Master LLC
27 CaesarIA Jan 20, 2015 FreeN/A (N/A)500,000 .. 1,000,0000%00:00 (00:00)rdt.32rdt.32
28 Europe Bus Driver Nov 18, 2022 $3.99N/A (N/A)0 .. 20,0000%00:00 (00:00)Atomic Fabrik, Cristian ManolachiAtomic Fabrik, Cristian Manolachi
29 We Who Are About To Die Nov 14, 2022 $21.99N/A (N/A)100,000 .. 200,0000%00:00 (00:00)Jordy LakiereJordy Lakiere
30 Just Power: The Papal States Nov 12, 2022 $4.99N/A (N/A)20,000 .. 50,0000%00:00 (00:00)Sticks GamesSticks Games
31 Gladius | Gladiator VR Sword fighting Oct 29, 2022 $14.99N/A (N/A)0 .. 20,0000%00:00 (00:00)VirtualAgeVirtualAge
32 Asterix & Obelix XXXL : The Ram From Hibernia Oct 27, 2022 $29.99N/A (N/A)50,000 .. 100,0000%00:00 (00:00)OSome StudioMicroids
33 Asterigos: Curse of the Stars Oct 11, 2022 $34.99N/A (N/A)0 .. 20,00050%16:27 (08:13)Acme GamestudiotinyBuild
34 costrutto Sep 18, 2022 $1.99N/A (N/A)0 .. 20,0000%00:00 (00:00)Volfson Studios, CyberzonegamesVolfson Inc.
35 Crescent Bloom Sep 2, 2022 $1.99N/A (N/A)0 .. 20,0000%00:00 (00:00)Nox MetricaNox Metrica
36 First Time in Rome Aug 26, 2022 $5.59N/A (N/A)0 .. 20,0000%00:00 (00:00)Boomzap IncBoomzap Inc
37 Warriors of the Nile 2 Aug 23, 2022 $14.99N/A (N/A)50,000 .. 100,0000%00:00 (00:00)Stove StudioGamera Games
38 冥界崛起 Aug 4, 2022 $7.99N/A (N/A)0 .. 20,0000%00:00 (00:00)冥界崛起思美商贸
39 Havsala: Into the Soul Palace Jun 21, 2022 $11.99N/A (N/A)100,000 .. 200,0000%00:00 (00:00)Stratera GamesStratera Games
40 Imperium BCE Jun 9, 2022 $24.99N/A (N/A)0 .. 20,0000%00:00 (00:00)WildercroftWildercroft
41 Warlord: Britannia May 24, 2022 $19.99N/A (N/A)20,000 .. 50,0000%00:00 (00:00)Darkmatter GamesDarkmatter Games
42 Heroes of Rome 2 - The Revenge of Discordia May 5, 2022 $9.99N/A (N/A)0 .. 20,0000%00:00 (00:00)magnussoftmagnussoft
43 Gladia Mar 12, 2022 $0.59N/A (N/A)0 .. 20,0000%00:00 (00:00)WhoisthisWhoisthis
44 角斗士学院(Gladiator School) Feb 28, 2022 $5.99N/A (N/A)20,000 .. 50,0000%00:00 (00:00)Together Game, project bambooTogether Game
45 Roma Invicta Feb 11, 2022 $5.99N/A (N/A)0 .. 20,0000%00:00 (00:00)PuntigamesPuntigames
46 Gods of Sand Feb 7, 2022 $9.99N/A (N/A)20,000 .. 50,0000%00:00 (00:00)Achenar Studios, Odd GiantOdd Giant
47 Roma VR - Domus Feb 3, 2022 $5.99N/A (N/A)0 .. 20,0000%00:00 (00:00)Sleepy Dog Interactive LLCSleepy Dog Interactive LLC
48 Riding Seas Jan 31, 2022 $12.99N/A (N/A)0 .. 20,0000%00:00 (00:00)CatOnTree StudioCatOnTree Studio
49 Golden Age Jan 28, 2022 $1.99N/A (N/A)20,000 .. 50,0000%00:00 (00:00)Beast Of WorldBeast Of World
50 Ancient Wars: Sparta Definitive Edition Jan 28, 2022 $14.99N/A (N/A)0 .. 20,0000%00:00 (00:00)JOTASOFT STUDIOSJOTASOFT STUDIOS
51 Roads Of Rome: Portals Collector's Edition Jan 24, 2022 $5.99N/A (N/A)0 .. 20,0000%00:00 (00:00)WhiterraQumaron
52 Glory of Rome Jan 7, 2022 $4.89N/A (N/A)0 .. 20,0000%00:00 (00:00)Simon CodringtonSimon Codrington
53 Roman Wars: Deck Building Game Dec 9, 2021 $2.99N/A (N/A)0 .. 20,0000%00:00 (00:00)Aleksandr ZhukovAleksandr Zhukov
54 Gladiator: about to die Nov 25, 2021 $19.99N/A (N/A)0 .. 20,0000%00:00 (00:00)Pabstein GamesPabstein Games
55 Shillelagh Nov 10, 2021 $4.99N/A (N/A)200,000 .. 500,0000%00:00 (00:00)Andrew Simon Thomas LLCAndrew Simon Thomas LLC
56 ArtFormer: Ancient Stories Sep 29, 2021 $5.99N/A (N/A)0 .. 20,0000%00:00 (00:00)Jan Šídlo, Adam HrubýBuffa Software
57 Concordia: Digital Edition Sep 28, 2021 $18.99N/A (N/A)0 .. 20,0000%00:00 (00:00)Acram DigitalAcram Digital
58 Imperivm RTC - HD Edition "Great Battles of Rome" Aug 16, 2021 $9.99N/A (N/A)50,000 .. 100,0000%00:00 (00:00)Dinamic Games, Imperivm WorldFX Interactive
59 GLADIUM Jun 24, 2021 $5.99N/A (N/A)0 .. 20,0000%00:00 (00:00)Eirik WiklundEirik Wiklund
60 Colosseum VR Jun 17, 2021 $1.99N/A (N/A)20,000 .. 50,0000%00:00 (00:00)TECRON VR, iNFINITE PRODUCTIONTECRON VR
61 Victor Jun 15, 2021 $4.99N/A (N/A)0 .. 20,0000%00:00 (00:00)Dávid MessercolaDávid Messercola
62 Total War: ROME REMASTERED Apr 29, 2021 $29.99N/A (N/A)500,000 .. 1,000,0004.55%00:50 (00:16)Creative Assembly, Feral InteractiveSEGA
63 For Sparta Mar 22, 2021 $1.99N/A (N/A)0 .. 20,0000%00:00 (00:00)Gamecraft StudiosGamecraft Studios
64 Phucker in the Ashes Feb 7, 2021 $2.99N/A (N/A)0 .. 20,0000%00:00 (00:00)GZ Storm, LazroolGZ Storm, Lazrool
65 Fallen Rebellion Jan 4, 2021 $0.99N/A (N/A)20,000 .. 50,0000%00:00 (00:00)Leszczynski D Joseph, BazkreyolBazkreyol Games
66 Historical Games: Chariot Racing Nov 13, 2020 $9.99N/A (N/A)0 .. 20,0000%00:00 (00:00)Flyover ZoneFlyover Zone
67 Gallic Wars: Battle Simulator Oct 30, 2020 $0.99N/A (N/A)0 .. 20,0000%00:00 (00:00)MadGamesmithWIG Publishing
68 ガリア戦記 雄篇アンナーレス Oct 29, 2020 $8.99N/A (N/A)0 .. 20,0000%00:00 (00:00)白新社白新社
69 VR Travelling in the Roman Empire (VR Rome Time machine travel in history) Aug 18, 2020 $9.99N/A (N/A)0 .. 20,0000%00:00 (00:00)William at OxfordWilliam at Oxford
70 Roman Way Jul 29, 2020 $9.99N/A (N/A)0 .. 20,0000%00:00 (00:00)NyberiusNyberius
71 Cubers: Arena Jul 28, 2020 $14.99N/A (N/A)0 .. 20,0000%00:00 (00:00)Tomasz Dziobek (TomiGames)Teyon
72 Legion Gold Jul 9, 2020 $9.99N/A (N/A)0 .. 20,0000%00:00 (00:00)Slitherine Ltd.Slitherine Ltd.
73 罗马之链 Aug 3, 2020 $3.99N/A (N/A)50,000 .. 100,0000%00:00 (00:00)CorvusCorax_studioCorvusCorax_studio
74 Shieldwall Mar 23, 2020 $13.99N/A (N/A)200,000 .. 500,0000%00:00 (00:00)Nezon ProductionNezon Production
75 Ludus Feb 20, 2020 $3.99N/A (N/A)50,000 .. 100,0000%00:00 (00:00)Cheesecake DevCheesecake Dev
76 Patched world Feb 7, 2020 $1.99N/A (N/A)0 .. 20,0000%00:00 (00:00)MoondolinoMoondolino
77 Praetorians - HD Remaster Jan 24, 2020 $19.99N/A (N/A)20,000 .. 50,0000%00:00 (00:00)Torus Games, Pyro StudiosKalypso Media
78 Orbi Universo Jan 10, 2020 $19.99N/A (N/A)20,000 .. 50,0000%00:00 (00:00)Orbi Universo TeamOrbi Universo Team
79 Story of a Gladiator Nov 27, 2019 $10.99N/A (N/A)20,000 .. 50,0000%00:00 (00:00)Brain Seal LtdBrain Seal Ltd
80 Asterix & Obelix XXL 3 - The Crystal Menhir Nov 21, 2019 $4.49N/A (N/A)20,000 .. 50,0000%00:00 (00:00)Osome StudioMicroids
81 A Legionary's Life Sep 25, 2019 $7.99N/A (N/A)50,000 .. 100,0000%00:00 (00:00)Alessandro RobertiAlessandro Roberti
82 Last Day of Rome Sep 6, 2019 $11.99N/A (N/A)20,000 .. 50,0000%00:00 (00:00)HamstersHamsters
83 The Last Roman Village Jul 26, 2019 $2.99N/A (N/A)0 .. 20,0000%00:00 (00:00)Twin Stone StudioTwin Stone Studio
84 Pax Romana: Romulus May 27, 2019 $2.99N/A (N/A)0 .. 20,0000%00:00 (00:00)Locus LudusLocus Ludus
85 Lyratha: Labyrinth - Survival - Escape Mar 11, 2019 $6.99N/A (N/A)20,000 .. 50,0000%00:00 (00:00)Lord ImperioLord Imperio
86 Citizen of Rome - Dynasty Ascendant Jan 1, 2019 $9.99N/A (N/A)50,000 .. 100,0000%00:00 (00:00)Citizen of Rome - Dynasty Ascendant, Sathvik Software SolutionsCitizen of Rome - Dynasty Ascendant, Sathvik Software Solutions
87 Reliefs The Time of the Lemures Sep 7, 2018 $19.99N/A (N/A)0 .. 20,0000%00:00 (00:00)Calepin StudioCalepin Studio
88 Shield Impact Aug 29, 2018 $0.99N/A (N/A)0 .. 20,0000%00:00 (00:00)Magitech GamesMagitech Games
89 Age of Gladiators II: Rome Aug 21, 2018 $19.99N/A (N/A)50,000 .. 100,0000%00:00 (00:00)Creative Storm EntertainmentCreative Storm Entertainment
90 Formata Dec 7, 2017 $9.99N/A (N/A)20,000 .. 50,0000%00:00 (00:00)Nezon ProductionNezon Production
91 Mare Nostrvm Nov 2, 2017 $19.99N/A (N/A)0 .. 20,0000%00:00 (00:00)TurnopiaSlitherine Ltd.
92 Empire Architect Oct 6, 2017 $14.99N/A (N/A)0 .. 20,0000%00:00 (00:00)Batholith EntertainmentBatholith Entertainment
93 Defense of Roman Britain Jul 22, 2017 $6.99N/A (N/A)0 .. 20,0000%00:00 (00:00)First Games InteractiveFirst Games Interactive
94 Swords and Sandals 2 Redux Jun 29, 2017 $8.99N/A (N/A)0 .. 20,0000%00:00 (00:00)Whiskeybarrel StudioseGames.com
95 Caesar 3 May 30, 1999 $5.99N/A (N/A)200,000 .. 500,0000%00:00 (00:00)Impressions GamesActivision
96 Romopolis May 18, 2016 $3.99N/A (N/A)20,000 .. 50,0000%00:00 (00:00)Lonely TroopsLonely Troops
97 Age of Gladiators Feb 25, 2016 $9.99N/A (N/A)100,000 .. 200,0000%00:00 (00:00)Creative Storm EntertainmentCreative Storm Entertainment
98 Hegemony III: Clash of the Ancients Aug 25, 2015 $29.99N/A (N/A)50,000 .. 100,0000%00:00 (00:00)Longbow GamesLongbow Games
99 CHARIOT WARS May 25, 2015 $6.99N/A (N/A)0 .. 20,0000%00:00 (00:00)OM ENTERTAINMENTOM ENTERTAINMENT
100 I, Gladiator Apr 7, 2015 $7.99N/A (N/A)20,000 .. 50,0000%00:00 (00:00)Steel MonkeysNext Dimension Game Adventures Ltd.
101 Alea Jacta Est Sep 27, 2012 $24.99N/A (N/A)50,000 .. 100,0000%00:00 (00:00)AgeodSlitherine Ltd.
102 Bloodbath Jun 16, 2014 $7.99N/A (N/A)0 .. 20,0000%00:00 (00:00)Freedom FactoryUnited Independent Entertainment
103 Hegemony Rome: The Rise of Caesar May 15, 2014 $14.99N/A (N/A)50,000 .. 100,0000%00:00 (00:00)Longbow GamesLongbow Games
Overview

Rome

Games with this tag: 103
Average userscore: N/A%
Average metascore: 76.91%
Average playtime: 09:49
Total copies owned: 18,050,000
Average price: $12.74
Help

Owners: Estimated number of people owning this game. The number might be way too small for new releases and sometimes way too big for games that had free weekend event recently. Read more on About page.

Playtime: Average hours played in total per person that have actually launched this game since March 2009. This time is calculated for the whole lifetime, not for the particular year.

Average score: Average users and metacritic score for all games with this score assigned.

Average playtime: Average lifetime playtime for all games where this data is available.

Games in this genre: Self-explaining - number of games with this tag. Only inculdes games with sales data available.

Total copies owned: Refers to total copies of games with this tag acquired by users for the lifetime. Includes copies sold, downloaded for free and given out.

This number might be too small for recently released games or too big for games that had a free weekend in the last couple of months.

Graphs

Login required.

Please register or log in to see this information.

Login required.

Please register or log in to see this information.